Sonic Adventure (DX): Boss Rankings

Records: Times | Rings | Scores | Races | Bosses | Freestyle
Leaders: Times | Rings | Scores | Races | Bosses | Freestyle | Overall
Rank Player Percent Points Date
1 Sonicspeedruner 98.4% 32 12-09-16
2 Gamepro011 97.0% 62 12-09-16
3 Austinf 92.8% 149 12-09-16
4 DarkPolarNight 91.8% 172 12-09-16
5 Jawzun 89.7% 215 12-09-16
6 drminus 89.6% 218 12-09-16
7 Parax 87.7% 258 12-09-16
8 ike6252 87.2% 267 12-09-16
9 Dashjump 85.1% 312 12-09-16
10 Avento128bits 84.7% 320 12-09-16
11 Coolfansonic 81.7% 383 12-09-16
12 DarkspinesSonic 81.3% 392 12-09-16
13 THC98 79.0% 439 12-09-16
14 F-Man 76.9% 483 12-09-16
15 TheRealShadnic 76.5% 492 12-09-16
16 Marth 75.8% 506 12-09-16
17 yoshifan 74.1% 542 12-09-16
18 Mariobutch 74.0% 545 12-09-16
19 PfoSonic 72.8% 569 12-09-16
20 InferSaime 72.4% 577 12-09-16
21 HyperSonic7701 70.6% 616 12-09-16
22 RPGnutter 69.7% 635 12-09-16
23 Paragod 68.2% 667 12-09-16
24 mike89 67.7% 677 12-09-16
25 frankoredstrato 67.5% 681 12-09-16
26 Groudon199 63.3% 769 12-09-16
27 sonicam 63.2% 770 12-09-16
28 SadisticMystic 63.0% 775 12-09-16
29 xXMegaManXx 62.3% 789 12-09-16
30 Stefan 61.4% 808 12-09-16
31 Diamond 60.4% 830 12-09-16
32 Combo 57.9% 883 12-09-16
33 bertin 57.6% 888 12-09-16
34 SkyLights 54.9% 946 12-09-16
35 francisco 49.2% 1065 12-09-16
36 Arch 49.1% 1066 12-09-16
37 Fr3nZy 49.1% 1067 12-09-16
38 OmegaDJ 47.1% 1108 12-09-16
39 Andrea Ritsu 46.9% 1114 12-09-16
40 Omega Rafael Santos 45.8% 1137 12-09-16
41 P1 Pause 44.5% 1163 12-09-16
42 magnum12 42.2% 1212 12-09-16
43 VeritasDL 41.5% 1226 12-09-16
44 Auriman1 38.4% 1292 12-09-16
45 James_Bertolli 35.9% 1343 12-09-16
46 teamblackarms 34.5% 1374 12-09-16
47 Hunters13 34.1% 1381 12-09-16
48 FuzZerd 33.4% 1397 12-09-16
49 Drakodan 33.1% 1402 12-09-16
50 Psymar 32.5% 1416 12-09-16
51 Quartz 32.2% 1422 12-09-16
52 eggFL 31.9% 1427 12-09-16
53 Cyan Ryan 31.6% 1433 12-09-16
54 Jerzia 31.0% 1447 12-09-16
55 GerbilSoft 30.9% 1449 12-09-16
56 elecmouse101 30.4% 1459 12-09-16
57 Thorn 30.1% 1465 12-09-16
58 Webber3000 29.9% 1469 12-09-16
59 videogamemaster777 29.7% 1473 12-09-16
60 Mo Player Banned 28.4% 1502 12-09-16
60 Turbos 28.4% 1502 12-09-16
62 Termon 27.2% 1527 12-09-16
63 Nimrod 26.6% 1539 12-09-16
64 Dave Cramer 26.2% 1548 12-09-16
65 Flying Fox 26.0% 1552 12-09-16
66 nuckrieg 25.1% 1570 12-09-16
67 buddychaos0415 25.1% 1571 12-09-16
68 Shadow Jacky 24.0% 1594 12-09-16
69 Cream147 21.5% 1646 12-09-16
70 supersonicfan 21.3% 1650 12-09-16
71 MiStEr_ShAoLiN 20.9% 1658 12-09-16
72 NintenDan 20.9% 1659 12-09-16
73 thewaytodawnnn 20.8% 1661 12-09-16
74 Aitamen 20.6% 1664 12-09-16
75 itsPersonnal 20.5% 1667 12-09-16
76 The T 20.4% 1670 12-09-16
77 supersonic465 20.1% 1676 12-09-16
78 Cybrax 20.0% 1678 12-09-16
79 SonicWinDX 19.4% 1689 12-09-16
80 Cruizer 18.9% 1700 12-09-16
81 VMU Player Banned 17.7% 1726 12-09-16
82 Game_Complete 17.2% 1736 12-09-16
83 The Great Lord Mick 16.7% 1747 12-09-16
84 GreatStar 15.9% 1764 12-09-16
84 Questionguy555 15.9% 1764 12-09-16
86 Spinballwizard 15.3% 1776 12-09-16
87 Sondow 14.6% 1791 12-09-16
88 sonicandamy Player Banned 14.2% 1800 12-09-16
89 Destroyer121121 14.0% 1804 12-09-16
90 GarnetPrincess 13.4% 1815 12-09-16
91 SonicAD 12.0% 1845 12-09-16
92 Don 11.3% 1859 12-09-16
93 Miles9999 11.2% 1863 12-09-16
94 SuperBlitzCraig 11.0% 1867 12-09-16
95 Siavash Tazari 10.9% 1868 12-09-16
96 Cutiefox 10.3% 1880 12-09-16
97 BigAL49 10.3% 1881 12-09-16
98 Psyknux 10.1% 1885 12-09-16
99 knuckles_sonic8 9.7% 1893 12-09-16
100 Werey 9.7% 1894 12-09-16
101 joecoolgames 9.5% 1897 12-09-16
102 mauserman 9.1% 1905 12-09-16
103 Badlex727 9.0% 1909 12-09-16
103 EngiNerd 9.0% 1909 12-09-16
105 Sonic Singularity 8.6% 1916 12-09-16
106 dShadow 8.5% 1919 12-09-16
107 Hipertails12 8.3% 1922 12-09-16
108 Aiko 8.1% 1928 12-09-16
109 Shanekilz 8.0% 1930 12-09-16
110 Therio 7.6% 1938 12-09-16
111 Mastakirby 7.4% 1942 12-09-16
112 TommyeAsY 7.0% 1950 12-09-16
113 chainchumper 6.9% 1952 12-09-16
114 FocusSight64 6.8% 1954 12-09-16
115 TheChaosEmeraIds 6.8% 1955 12-09-16
116 sonic29887 6.7% 1956 12-09-16
117 Chao_Fan 6.6% 1959 12-09-16
118 djmat 6.0% 1972 12-09-16
118 HHNNBBHHN 6.0% 1972 12-09-16
120 tal39h 5.9% 1973 12-09-16
121 paulie9990 5.8% 1976 12-09-16
122 Sogeking 5.4% 1984 12-09-16
123 Brian_pso 5.0% 1993 12-09-16
124 Chawkk 4.9% 1994 12-09-16
125 SilvertheAlmighty 4.6% 2001 12-09-16
126 MK 4.5% 2003 12-09-16
126 SpinDashMaster 4.5% 2003 12-09-16
128 MastaToken 4.1% 2011 12-09-16
129 Sonique Hedgehog 3.8% 2018 12-09-16
129 SpiritDragon1995 3.8% 2018 12-09-16
131 KinkyCadence 3.5% 2023 12-09-16
132 Mad Andy 3.4% 2026 12-09-16
132 PsyBorg 3.4% 2026 12-09-16
134 FSSRandomvids 3.2% 2029 12-09-16
135 Rolken 3.0% 2035 12-09-16
136 koinu93 2.9% 2036 12-09-16
137 Xia 2.8% 2038 12-09-16
138 andres430 2.6% 2043 12-09-16
139 dabestgamer 2.2% 2050 12-09-16
140 crazy1993 2.2% 2051 12-09-16
140 shadowblast63 Player Banned 2.2% 2051 12-09-16
142 Illidan 2.0% 2055 12-09-16
143 Richied 2.0% 2056 12-09-16
144 DanielTheFalcon 1.8% 2060 12-09-16
144 gamer1245 1.8% 2060 12-09-16
146 Iwannabelink 1.7% 2062 12-09-16
147 oTaiIilLsS 1.4% 2068 12-09-16
148 niscool 1.3% 2070 12-09-16
148 soniccoloursunleashed 1.3% 2070 12-09-16
150 Redd 1.1% 2074 12-09-16
151 ieatatsonic 1.0% 2075 12-09-16
152 LinksDarkArrows 0.8% 2080 12-09-16
153 Lil_Dude 0.8% 2081 12-09-16
154 Cbwade15 0.4% 2088 12-09-16
155 neaolas 0.3% 2090 12-09-16
156 BlankTH 0.2% 2093 12-09-16
157 Heroes_Hater 0.1% 2094 12-09-16
158 S-MS32X-S 0.0% 2096 12-09-16
159 chaos shadow 0.0% 2097 12-09-16
160 KaM Mark MaK 0.0% 2098 12-09-16
160 MegabombBlade 0.0% 2098 12-09-16

This page is using the New Data Table System. [FUTURE]

Game ID: 3 | Category ID: 6
Hits: 4,416 | Hits This Month: 4 | DB Calls: 24 | Mem Usage: 5.35 MB | Time: 0.07s | Printable

The Sonic Center v3.9
Copyright 2003-2011 by The Sonic Center Team.